sensor_id;sensor_type;location;lat;lon;timestamp;temperature;humidity
8332;DHT22;4203;48.144;14.118;2022-12-07T00:00:55;3.40;99.90
8332;DHT22;4203;48.144;14.118;2022-12-07T00:03:22;3.40;99.90
8332;DHT22;4203;48.144;14.118;2022-12-07T00:05:49;3.40;99.90
8332;DHT22;4203;48.144;14.118;2022-12-07T00:08:17;3.40;99.90
8332;DHT22;4203;48.144;14.118;2022-12-07T00:10:44;3.40;99.90
8332;DHT22;4203;48.144;14.118;2022-12-07T00:13:11;3.40;99.90
8332;DHT22;4203;48.144;14.118;2022-12-07T00:15:40;3.40;99.90
8332;DHT22;4203;48.144;14.118;2022-12-07T00:18:07;3.40;99.90
8332;DHT22;4203;48.144;14.118;2022-12-07T00:20:34;3.40;99.90
8332;DHT22;4203;48.144;14.118;2022-12-07T00:23:01;3.40;99.90
8332;DHT22;4203;48.144;14.118;2022-12-07T00:25:30;3.40;99.90
8332;DHT22;4203;48.144;14.118;2022-12-07T00:27:57;3.30;99.90
8332;DHT22;4203;48.144;14.118;2022-12-07T00:30:24;3.40;99.90
8332;DHT22;4203;48.144;14.118;2022-12-07T00:32:53;3.40;99.90
8332;DHT22;4203;48.144;14.118;2022-12-07T00:35:20;3.40;99.90
8332;DHT22;4203;48.144;14.118;2022-12-07T00:37:47;3.40;99.90
8332;DHT22;4203;48.144;14.118;2022-12-07T00:40:15;3.40;99.90
8332;DHT22;4203;48.144;14.118;2022-12-07T00:42:42;3.30;99.90
8332;DHT22;4203;48.144;14.118;2022-12-07T00:45:09;3.30;99.90
8332;DHT22;4203;48.144;14.118;2022-12-07T00:47:37;3.30;99.90
8332;DHT22;4203;48.144;14.118;2022-12-07T00:50:06;3.30;99.90
8332;DHT22;4203;48.144;14.118;2022-12-07T00:52:34;3.30;99.90
8332;DHT22;4203;48.144;14.118;2022-12-07T00:55:01;3.30;99.90
8332;DHT22;4203;48.144;14.118;2022-12-07T00:57:29;3.30;99.90
8332;DHT22;4203;48.144;14.118;2022-12-07T00:59:57;3.30;99.90
8332;DHT22;4203;48.144;14.118;2022-12-07T01:02:26;3.30;99.90
8332;DHT22;4203;48.144;14.118;2022-12-07T01:04:53;3.30;99.90
8332;DHT22;4203;48.144;14.118;2022-12-07T01:07:21;3.30;99.90
8332;DHT22;4203;48.144;14.118;2022-12-07T01:09:49;3.30;99.90
8332;DHT22;4203;48.144;14.118;2022-12-07T01:12:16;3.30;99.90
8332;DHT22;4203;48.144;14.118;2022-12-07T01:14:43;3.30;99.90
8332;DHT22;4203;48.144;14.118;2022-12-07T01:17:10;3.30;99.90
8332;DHT22;4203;48.144;14.118;2022-12-07T01:19:37;3.30;99.90
8332;DHT22;4203;48.144;14.118;2022-12-07T01:22:05;3.20;99.90
8332;DHT22;4203;48.144;14.118;2022-12-07T01:24:33;3.30;99.90
8332;DHT22;4203;48.144;14.118;2022-12-07T01:27:01;3.30;99.90
8332;DHT22;4203;48.144;14.118;2022-12-07T01:29:28;3.30;99.90
8332;DHT22;4203;48.144;14.118;2022-12-07T01:31:55;3.30;99.90
8332;DHT22;4203;48.144;14.118;2022-12-07T01:34:22;3.30;99.90
8332;DHT22;4203;48.144;14.118;2022-12-07T01:36:50;3.30;99.90
8332;DHT22;4203;48.144;14.118;2022-12-07T01:39:17;3.30;99.90
8332;DHT22;4203;48.144;14.118;2022-12-07T01:41:45;3.30;99.90
8332;DHT22;4203;48.144;14.118;2022-12-07T01:44:18;3.30;99.90
8332;DHT22;4203;48.144;14.118;2022-12-07T01:46:47;3.40;99.90
8332;DHT22;4203;48.144;14.118;2022-12-07T01:49:28;3.30;99.90
8332;DHT22;4203;48.144;14.118;2022-12-07T01:52:01;3.40;99.90
8332;DHT22;4203;48.144;14.118;2022-12-07T01:54:31;3.30;99.90
8332;DHT22;4203;48.144;14.118;2022-12-07T01:57:01;3.30;99.90
8332;DHT22;4203;48.144;14.118;2022-12-07T01:59:29;3.40;99.90
8332;DHT22;4203;48.144;14.118;2022-12-07T02:01:57;3.30;99.90
8332;DHT22;4203;48.144;14.118;2022-12-07T02:04:24;3.40;99.90
8332;DHT22;4203;48.144;14.118;2022-12-07T02:06:51;3.30;99.90
8332;DHT22;4203;48.144;14.118;2022-12-07T02:09:20;3.30;99.90
8332;DHT22;4203;48.144;14.118;2022-12-07T02:11:47;3.30;99.90
8332;DHT22;4203;48.144;14.118;2022-12-07T02:14:16;3.30;99.90
8332;DHT22;4203;48.144;14.118;2022-12-07T02:16:50;3.30;99.90
8332;DHT22;4203;48.144;14.118;2022-12-07T02:26:08;3.30;99.90
8332;DHT22;4203;48.144;14.118;2022-12-07T02:31:33;3.20;99.90
8332;DHT22;4203;48.144;14.118;2022-12-07T02:34:05;3.20;99.90
8332;DHT22;4203;48.144;14.118;2022-12-07T02:36:39;3.20;99.90
8332;DHT22;4203;48.144;14.118;2022-12-07T02:39:11;3.20;99.90
8332;DHT22;4203;48.144;14.118;2022-12-07T02:41:46;3.20;99.90
8332;DHT22;4203;48.144;14.118;2022-12-07T02:44:18;3.20;99.90
8332;DHT22;4203;48.144;14.118;2022-12-07T02:46:51;3.20;99.90
8332;DHT22;4203;48.144;14.118;2022-12-07T02:49:22;3.20;99.90
8332;DHT22;4203;48.144;14.118;2022-12-07T02:51:49;3.20;99.90
8332;DHT22;4203;48.144;14.118;2022-12-07T02:54:18;3.10;99.90
8332;DHT22;4203;48.144;14.118;2022-12-07T02:56:50;3.10;99.90
8332;DHT22;4203;48.144;14.118;2022-12-07T02:59:28;3.10;99.90
8332;DHT22;4203;48.144;14.118;2022-12-07T03:02:08;3.10;99.90
8332;DHT22;4203;48.144;14.118;2022-12-07T03:04:47;3.10;99.90
8332;DHT22;4203;48.144;14.118;2022-12-07T03:07:24;3.10;99.90
8332;DHT22;4203;48.144;14.118;2022-12-07T03:09:59;3.10;99.90
8332;DHT22;4203;48.144;14.118;2022-12-07T03:12:31;3.10;99.90
8332;DHT22;4203;48.144;14.118;2022-12-07T03:15:04;3.10;99.90
8332;DHT22;4203;48.144;14.118;2022-12-07T03:17:35;3.10;99.90
8332;DHT22;4203;48.144;14.118;2022-12-07T03:20:09;3.10;99.90
8332;DHT22;4203;48.144;14.118;2022-12-07T03:22:38;3.10;99.90
8332;DHT22;4203;48.144;14.118;2022-12-07T03:25:10;3.10;99.90
8332;DHT22;4203;48.144;14.118;2022-12-07T03:27:41;3.10;99.90
8332;DHT22;4203;48.144;14.118;2022-12-07T03:30:16;3.00;99.90
8332;DHT22;4203;48.144;14.118;2022-12-07T03:32:45;3.00;99.90
8332;DHT22;4203;48.144;14.118;2022-12-07T03:35:18;3.00;99.90
8332;DHT22;4203;48.144;14.118;2022-12-07T03:37:51;3.00;99.90
8332;DHT22;4203;48.144;14.118;2022-12-07T03:40:22;3.00;99.90
8332;DHT22;4203;48.144;14.118;2022-12-07T03:42:52;3.00;99.90
8332;DHT22;4203;48.144;14.118;2022-12-07T03:45:27;3.00;99.90
8332;DHT22;4203;48.144;14.118;2022-12-07T03:48:03;3.00;99.90
8332;DHT22;4203;48.144;14.118;2022-12-07T03:50:41;2.90;99.90
8332;DHT22;4203;48.144;14.118;2022-12-07T03:53:12;2.90;99.90
8332;DHT22;4203;48.144;14.118;2022-12-07T03:55:43;2.90;99.90
8332;DHT22;4203;48.144;14.118;2022-12-07T03:58:18;2.90;99.90
8332;DHT22;4203;48.144;14.118;2022-12-07T04:00:48;2.90;99.90
8332;DHT22;4203;48.144;14.118;2022-12-07T04:03:15;2.90;99.90
8332;DHT22;4203;48.144;14.118;2022-12-07T04:05:43;2.80;99.90
8332;DHT22;4203;48.144;14.118;2022-12-07T04:08:10;2.90;99.90
8332;DHT22;4203;48.144;14.118;2022-12-07T04:10:37;2.80;99.90
8332;DHT22;4203;48.144;14.118;2022-12-07T04:13:04;2.80;99.90
8332;DHT22;4203;48.144;14.118;2022-12-07T04:15:32;2.90;99.90
8332;DHT22;4203;48.144;14.118;2022-12-07T04:18:00;2.80;99.90
8332;DHT22;4203;48.144;14.118;2022-12-07T04:20:28;2.80;99.90
8332;DHT22;4203;48.144;14.118;2022-12-07T04:22:55;2.80;99.90
8332;DHT22;4203;48.144;14.118;2022-12-07T04:25:22;2.80;99.90
8332;DHT22;4203;48.144;14.118;2022-12-07T04:27:49;2.80;99.90
8332;DHT22;4203;48.144;14.118;2022-12-07T04:30:16;2.80;99.90
8332;DHT22;4203;48.144;14.118;2022-12-07T04:32:44;2.70;99.90
8332;DHT22;4203;48.144;14.118;2022-12-07T04:35:13;2.70;99.90
8332;DHT22;4203;48.144;14.118;2022-12-07T04:37:40;2.80;99.90
8332;DHT22;4203;48.144;14.118;2022-12-07T04:40:08;2.80;99.90
8332;DHT22;4203;48.144;14.118;2022-12-07T04:42:36;2.80;99.90
8332;DHT22;4203;48.144;14.118;2022-12-07T04:45:05;2.80;99.90
8332;DHT22;4203;48.144;14.118;2022-12-07T04:47:32;2.80;99.90
8332;DHT22;4203;48.144;14.118;2022-12-07T04:50:00;2.80;99.90
8332;DHT22;4203;48.144;14.118;2022-12-07T04:52:28;2.80;99.90
8332;DHT22;4203;48.144;14.118;2022-12-07T04:54:55;2.70;99.90
8332;DHT22;4203;48.144;14.118;2022-12-07T04:57:23;2.80;99.90
8332;DHT22;4203;48.144;14.118;2022-12-07T04:59:50;2.70;99.90
8332;DHT22;4203;48.144;14.118;2022-12-07T05:02:17;2.80;99.90
8332;DHT22;4203;48.144;14.118;2022-12-07T05:04:44;2.70;99.90
8332;DHT22;4203;48.144;14.118;2022-12-07T05:07:11;2.70;99.90
8332;DHT22;4203;48.144;14.118;2022-12-07T05:09:40;2.70;99.90
8332;DHT22;4203;48.144;14.118;2022-12-07T05:14:35;2.70;99.90
8332;DHT22;4203;48.144;14.118;2022-12-07T05:17:02;2.70;99.90
8332;DHT22;4203;48.144;14.118;2022-12-07T05:19:29;2.70;99.90
8332;DHT22;4203;48.144;14.118;2022-12-07T05:21:57;2.70;99.90
8332;DHT22;4203;48.144;14.118;2022-12-07T05:24:24;2.70;99.90
8332;DHT22;4203;48.144;14.118;2022-12-07T05:26:52;2.70;99.90
8332;DHT22;4203;48.144;14.118;2022-12-07T05:29:20;2.70;99.90
8332;DHT22;4203;48.144;14.118;2022-12-07T05:31:47;2.70;99.90
8332;DHT22;4203;48.144;14.118;2022-12-07T05:34:14;2.70;99.90
8332;DHT22;4203;48.144;14.118;2022-12-07T05:36:42;2.70;99.90
8332;DHT22;4203;48.144;14.118;2022-12-07T05:39:10;2.80;99.90
8332;DHT22;4203;48.144;14.118;2022-12-07T05:41:37;2.80;99.90
8332;DHT22;4203;48.144;14.118;2022-12-07T05:44:23;2.80;99.90
8332;DHT22;4203;48.144;14.118;2022-12-07T05:46:51;2.70;99.90
8332;DHT22;4203;48.144;14.118;2022-12-07T05:49:18;2.70;99.90
8332;DHT22;4203;48.144;14.118;2022-12-07T05:51:45;2.70;99.90
8332;DHT22;4203;48.144;14.118;2022-12-07T05:54:12;2.70;99.90
8332;DHT22;4203;48.144;14.118;2022-12-07T05:56:40;2.70;99.90
8332;DHT22;4203;48.144;14.118;2022-12-07T05:59:08;2.70;99.90
8332;DHT22;4203;48.144;14.118;2022-12-07T06:01:58;2.70;99.90
8332;DHT22;4203;48.144;14.118;2022-12-07T06:04:28;2.80;99.90
8332;DHT22;4203;48.144;14.118;2022-12-07T06:06:55;2.80;99.90
8332;DHT22;4203;48.144;14.118;2022-12-07T06:09:24;2.70;99.90
8332;DHT22;4203;48.144;14.118;2022-12-07T06:11:52;2.60;99.90
8332;DHT22;4203;48.144;14.118;2022-12-07T06:14:37;2.60;99.90
8332;DHT22;4203;48.144;14.118;2022-12-07T06:17:06;2.60;99.90
8332;DHT22;4203;48.144;14.118;2022-12-07T06:19:33;2.60;99.90
8332;DHT22;4203;48.144;14.118;2022-12-07T06:22:01;2.70;99.90
8332;DHT22;4203;48.144;14.118;2022-12-07T06:24:30;2.70;99.90
8332;DHT22;4203;48.144;14.118;2022-12-07T06:26:57;2.70;99.90
8332;DHT22;4203;48.144;14.118;2022-12-07T06:29:25;2.70;99.90
8332;DHT22;4203;48.144;14.118;2022-12-07T06:31:52;2.70;99.90
8332;DHT22;4203;48.144;14.118;2022-12-07T06:34:22;2.70;99.90
8332;DHT22;4203;48.144;14.118;2022-12-07T06:36:49;2.70;99.90
8332;DHT22;4203;48.144;14.118;2022-12-07T06:39:19;2.70;99.90
8332;DHT22;4203;48.144;14.118;2022-12-07T06:41:47;2.70;99.90
8332;DHT22;4203;48.144;14.118;2022-12-07T06:44:14;2.70;99.90
8332;DHT22;4203;48.144;14.118;2022-12-07T06:46:41;2.70;99.90
8332;DHT22;4203;48.144;14.118;2022-12-07T06:49:08;2.70;99.90
8332;DHT22;4203;48.144;14.118;2022-12-07T06:51:37;2.70;99.90
8332;DHT22;4203;48.144;14.118;2022-12-07T06:54:07;2.80;99.90
8332;DHT22;4203;48.144;14.118;2022-12-07T06:56:34;2.70;99.90
8332;DHT22;4203;48.144;14.118;2022-12-07T06:59:02;2.80;99.90
8332;DHT22;4203;48.144;14.118;2022-12-07T07:01:29;2.70;99.90
8332;DHT22;4203;48.144;14.118;2022-12-07T07:03:56;2.70;99.90
8332;DHT22;4203;48.144;14.118;2022-12-07T07:06:24;2.80;99.90
8332;DHT22;4203;48.144;14.118;2022-12-07T07:08:52;2.80;99.90
8332;DHT22;4203;48.144;14.118;2022-12-07T07:11:20;2.80;99.90
8332;DHT22;4203;48.144;14.118;2022-12-07T07:13:47;2.80;99.90
8332;DHT22;4203;48.144;14.118;2022-12-07T07:16:14;2.80;99.90
8332;DHT22;4203;48.144;14.118;2022-12-07T07:18:41;2.80;99.90
8332;DHT22;4203;48.144;14.118;2022-12-07T07:21:09;2.80;99.90
8332;DHT22;4203;48.144;14.118;2022-12-07T07:23:36;2.80;99.90
8332;DHT22;4203;48.144;14.118;2022-12-07T07:26:05;2.70;99.90
8332;DHT22;4203;48.144;14.118;2022-12-07T07:28:32;2.80;99.90
8332;DHT22;4203;48.144;14.118;2022-12-07T07:30:59;2.80;99.90
8332;DHT22;4203;48.144;14.118;2022-12-07T07:33:26;2.80;99.90
8332;DHT22;4203;48.144;14.118;2022-12-07T07:35:54;2.90;99.90
8332;DHT22;4203;48.144;14.118;2022-12-07T07:38:21;2.90;99.90
8332;DHT22;4203;48.144;14.118;2022-12-07T07:40:48;2.90;99.90
8332;DHT22;4203;48.144;14.118;2022-12-07T07:43:16;2.90;99.90
8332;DHT22;4203;48.144;14.118;2022-12-07T07:45:44;2.90;99.90
8332;DHT22;4203;48.144;14.118;2022-12-07T07:48:11;2.90;99.90
8332;DHT22;4203;48.144;14.118;2022-12-07T07:50:38;3.00;99.90
8332;DHT22;4203;48.144;14.118;2022-12-07T07:53:06;3.00;99.90
8332;DHT22;4203;48.144;14.118;2022-12-07T07:55:34;3.00;99.90
8332;DHT22;4203;48.144;14.118;2022-12-07T07:58:01;3.00;99.90
8332;DHT22;4203;48.144;14.118;2022-12-07T08:00:29;3.00;99.90
8332;DHT22;4203;48.144;14.118;2022-12-07T08:02:56;3.00;99.90
8332;DHT22;4203;48.144;14.118;2022-12-07T08:05:24;3.00;99.90
8332;DHT22;4203;48.144;14.118;2022-12-07T08:07:52;3.00;99.90
8332;DHT22;4203;48.144;14.118;2022-12-07T08:10:19;3.00;99.90
8332;DHT22;4203;48.144;14.118;2022-12-07T08:12:46;3.10;99.90
8332;DHT22;4203;48.144;14.118;2022-12-07T08:15:32;3.20;99.90
8332;DHT22;4203;48.144;14.118;2022-12-07T08:17:59;3.30;99.90
8332;DHT22;4203;48.144;14.118;2022-12-07T08:20:26;3.40;99.90
8332;DHT22;4203;48.144;14.118;2022-12-07T08:22:53;3.40;99.90
8332;DHT22;4203;48.144;14.118;2022-12-07T08:25:21;3.40;99.90
8332;DHT22;4203;48.144;14.118;2022-12-07T08:27:49;3.40;99.90
8332;DHT22;4203;48.144;14.118;2022-12-07T08:30:17;3.50;99.90
8332;DHT22;4203;48.144;14.118;2022-12-07T08:32:46;3.50;99.90
8332;DHT22;4203;48.144;14.118;2022-12-07T08:35:14;3.60;99.90
8332;DHT22;4203;48.144;14.118;2022-12-07T08:37:41;3.60;99.90
8332;DHT22;4203;48.144;14.118;2022-12-07T08:40:10;3.60;99.90
8332;DHT22;4203;48.144;14.118;2022-12-07T08:42:41;3.60;99.90
8332;DHT22;4203;48.144;14.118;2022-12-07T08:45:12;3.60;99.90
8332;DHT22;4203;48.144;14.118;2022-12-07T08:47:43;3.70;99.90
8332;DHT22;4203;48.144;14.118;2022-12-07T08:50:14;3.70;99.90
8332;DHT22;4203;48.144;14.118;2022-12-07T08:52:42;3.70;99.90
8332;DHT22;4203;48.144;14.118;2022-12-07T08:55:10;3.70;99.90
8332;DHT22;4203;48.144;14.118;2022-12-07T08:57:38;3.80;99.90
8332;DHT22;4203;48.144;14.118;2022-12-07T09:00:07;3.80;99.90
8332;DHT22;4203;48.144;14.118;2022-12-07T09:02:34;3.80;99.90
8332;DHT22;4203;48.144;14.118;2022-12-07T09:05:02;3.80;99.90
8332;DHT22;4203;48.144;14.118;2022-12-07T09:07:32;3.80;99.90
8332;DHT22;4203;48.144;14.118;2022-12-07T09:10:00;3.80;99.90
8332;DHT22;4203;48.144;14.118;2022-12-07T09:12:27;3.80;99.90
8332;DHT22;4203;48.144;14.118;2022-12-07T09:14:54;3.90;99.90
8332;DHT22;4203;48.144;14.118;2022-12-07T09:17:22;4.00;99.90
8332;DHT22;4203;48.144;14.118;2022-12-07T09:19:49;4.00;99.90
8332;DHT22;4203;48.144;14.118;2022-12-07T09:22:16;4.00;99.90
8332;DHT22;4203;48.144;14.118;2022-12-07T09:24:45;4.00;99.90
8332;DHT22;4203;48.144;14.118;2022-12-07T09:27:12;4.00;99.90
8332;DHT22;4203;48.144;14.118;2022-12-07T09:29:41;4.00;99.90
8332;DHT22;4203;48.144;14.118;2022-12-07T09:32:08;4.10;99.90
8332;DHT22;4203;48.144;14.118;2022-12-07T09:34:35;4.10;99.90
8332;DHT22;4203;48.144;14.118;2022-12-07T09:37:02;4.10;99.90
8332;DHT22;4203;48.144;14.118;2022-12-07T09:39:30;4.20;99.90
8332;DHT22;4203;48.144;14.118;2022-12-07T09:41:59;4.20;99.90
8332;DHT22;4203;48.144;14.118;2022-12-07T09:44:29;4.20;99.90
8332;DHT22;4203;48.144;14.118;2022-12-07T09:46:57;4.20;99.90
8332;DHT22;4203;48.144;14.118;2022-12-07T09:49:27;4.20;99.90
8332;DHT22;4203;48.144;14.118;2022-12-07T09:52:03;4.30;99.90
8332;DHT22;4203;48.144;14.118;2022-12-07T09:54:46;4.30;99.90
8332;DHT22;4203;48.144;14.118;2022-12-07T09:57:15;4.40;99.90
8332;DHT22;4203;48.144;14.118;2022-12-07T09:59:42;4.40;99.90
8332;DHT22;4203;48.144;14.118;2022-12-07T10:02:26;4.50;99.90
8332;DHT22;4203;48.144;14.118;2022-12-07T10:04:57;4.60;99.90
8332;DHT22;4203;48.144;14.118;2022-12-07T10:07:24;4.80;99.90
8332;DHT22;4203;48.144;14.118;2022-12-07T10:09:52;4.80;99.90
8332;DHT22;4203;48.144;14.118;2022-12-07T10:12:20;5.00;99.90
8332;DHT22;4203;48.144;14.118;2022-12-07T10:14:57;5.10;99.90
8332;DHT22;4203;48.144;14.118;2022-12-07T10:17:32;5.20;99.90
8332;DHT22;4203;48.144;14.118;2022-12-07T10:20:19;5.10;99.90
8332;DHT22;4203;48.144;14.118;2022-12-07T10:22:58;5.10;99.90
8332;DHT22;4203;48.144;14.118;2022-12-07T10:25:28;5.00;99.90
8332;DHT22;4203;48.144;14.118;2022-12-07T10:28:00;5.00;99.90
8332;DHT22;4203;48.144;14.118;2022-12-07T10:30:29;5.00;99.90
8332;DHT22;4203;48.144;14.118;2022-12-07T10:32:56;5.10;99.90
8332;DHT22;4203;48.144;14.118;2022-12-07T10:35:26;5.40;99.90
8332;DHT22;4203;48.144;14.118;2022-12-07T10:37:55;5.50;99.90
8332;DHT22;4203;48.144;14.118;2022-12-07T10:40:26;5.50;99.90
8332;DHT22;4203;48.144;14.118;2022-12-07T10:43:04;5.50;99.90
8332;DHT22;4203;48.144;14.118;2022-12-07T10:45:32;5.70;99.90
8332;DHT22;4203;48.144;14.118;2022-12-07T10:48:09;5.90;99.90
8332;DHT22;4203;48.144;14.118;2022-12-07T10:50:56;6.00;99.90
8332;DHT22;4203;48.144;14.118;2022-12-07T10:53:42;5.90;99.90
8332;DHT22;4203;48.144;14.118;2022-12-07T10:56:38;5.80;99.90
8332;DHT22;4203;48.144;14.118;2022-12-07T11:02:23;5.60;99.90
8332;DHT22;4203;48.144;14.118;2022-12-07T11:04:59;5.60;99.90
8332;DHT22;4203;48.144;14.118;2022-12-07T11:07:38;5.60;99.90
8332;DHT22;4203;48.144;14.118;2022-12-07T11:10:13;5.50;99.90
8332;DHT22;4203;48.144;14.118;2022-12-07T11:13:04;5.40;99.90
8332;DHT22;4203;48.144;14.118;2022-12-07T11:15:47;5.20;99.90
8332;DHT22;4203;48.144;14.118;2022-12-07T11:18:23;5.00;99.90
8332;DHT22;4203;48.144;14.118;2022-12-07T11:20:56;4.90;99.90
8332;DHT22;4203;48.144;14.118;2022-12-07T11:23:39;4.90;99.90
8332;DHT22;4203;48.144;14.118;2022-12-07T11:26:18;5.10;99.90
8332;DHT22;4203;48.144;14.118;2022-12-07T11:29:04;5.40;99.90
8332;DHT22;4203;48.144;14.118;2022-12-07T11:31:41;5.80;99.90
8332;DHT22;4203;48.144;14.118;2022-12-07T11:34:21;6.00;99.90
8332;DHT22;4203;48.144;14.118;2022-12-07T11:36:54;6.00;99.90
8332;DHT22;4203;48.144;14.118;2022-12-07T11:39:26;6.20;99.90
8332;DHT22;4203;48.144;14.118;2022-12-07T11:42:00;6.30;99.90
8332;DHT22;4203;48.144;14.118;2022-12-07T11:44:33;6.20;99.90
8332;DHT22;4203;48.144;14.118;2022-12-07T11:47:07;6.40;99.90
8332;DHT22;4203;48.144;14.118;2022-12-07T11:49:41;6.40;99.90
8332;DHT22;4203;48.144;14.118;2022-12-07T11:52:20;6.20;99.90
8332;DHT22;4203;48.144;14.118;2022-12-07T11:54:51;6.10;99.90
8332;DHT22;4203;48.144;14.118;2022-12-07T11:57:24;5.80;99.90
8332;DHT22;4203;48.144;14.118;2022-12-07T11:59:56;5.50;99.90
8332;DHT22;4203;48.144;14.118;2022-12-07T12:02:31;5.40;99.90
8332;DHT22;4203;48.144;14.118;2022-12-07T12:05:05;5.20;99.90
8332;DHT22;4203;48.144;14.118;2022-12-07T12:07:34;5.20;99.90
8332;DHT22;4203;48.144;14.118;2022-12-07T12:10:06;5.10;99.90
8332;DHT22;4203;48.144;14.118;2022-12-07T12:12:53;5.10;99.90
8332;DHT22;4203;48.144;14.118;2022-12-07T12:15:35;5.30;99.90
8332;DHT22;4203;48.144;14.118;2022-12-07T12:21:20;5.30;99.90
8332;DHT22;4203;48.144;14.118;2022-12-07T12:23:58;5.20;99.90
8332;DHT22;4203;48.144;14.118;2022-12-07T12:26:29;5.20;99.90
8332;DHT22;4203;48.144;14.118;2022-12-07T12:28:59;5.20;99.90
8332;DHT22;4203;48.144;14.118;2022-12-07T12:31:36;5.20;99.90
8332;DHT22;4203;48.144;14.118;2022-12-07T12:34:32;5.50;99.90
8332;DHT22;4203;48.144;14.118;2022-12-07T12:37:01;6.50;99.90
8332;DHT22;4203;48.144;14.118;2022-12-07T12:39:29;6.50;99.90
8332;DHT22;4203;48.144;14.118;2022-12-07T12:42:00;6.10;99.90
8332;DHT22;4203;48.144;14.118;2022-12-07T12:45:05;5.80;99.90
8332;DHT22;4203;48.144;14.118;2022-12-07T12:47:51;5.90;99.90
8332;DHT22;4203;48.144;14.118;2022-12-07T12:50:21;5.70;99.90
8332;DHT22;4203;48.144;14.118;2022-12-07T12:58:46;5.20;99.90
8332;DHT22;4203;48.144;14.118;2022-12-07T13:01:44;5.10;99.90
8332;DHT22;4203;48.144;14.118;2022-12-07T13:04:48;5.10;99.90
8332;DHT22;4203;48.144;14.118;2022-12-07T13:07:49;5.10;99.90
8332;DHT22;4203;48.144;14.118;2022-12-07T13:10:44;5.00;99.90
8332;DHT22;4203;48.144;14.118;2022-12-07T13:13:32;5.00;99.90
8332;DHT22;4203;48.144;14.118;2022-12-07T13:22:46;4.90;99.90
8332;DHT22;4203;48.144;14.118;2022-12-07T13:25:26;4.30;99.90
8332;DHT22;4203;48.144;14.118;2022-12-07T13:28:02;4.80;99.90
8332;DHT22;4203;48.144;14.118;2022-12-07T13:30:29;4.80;99.90
8332;DHT22;4203;48.144;14.118;2022-12-07T13:32:58;4.80;99.90
8332;DHT22;4203;48.144;14.118;2022-12-07T13:35:33;4.80;99.90
8332;DHT22;4203;48.144;14.118;2022-12-07T13:38:05;4.80;99.90
8332;DHT22;4203;48.144;14.118;2022-12-07T13:40:33;4.80;99.90
8332;DHT22;4203;48.144;14.118;2022-12-07T13:43:04;4.80;99.90
8332;DHT22;4203;48.144;14.118;2022-12-07T13:45:33;4.80;99.90
8332;DHT22;4203;48.144;14.118;2022-12-07T13:48:30;4.80;99.90
8332;DHT22;4203;48.144;14.118;2022-12-07T13:50:58;4.80;99.90
8332;DHT22;4203;48.144;14.118;2022-12-07T13:53:27;4.80;99.90
8332;DHT22;4203;48.144;14.118;2022-12-07T13:55:56;4.90;99.90
8332;DHT22;4203;48.144;14.118;2022-12-07T13:58:26;4.90;99.90
8332;DHT22;4203;48.144;14.118;2022-12-07T14:00:54;4.80;99.90
8332;DHT22;4203;48.144;14.118;2022-12-07T14:03:28;4.60;99.90
8332;DHT22;4203;48.144;14.118;2022-12-07T14:06:11;4.40;99.90
8332;DHT22;4203;48.144;14.118;2022-12-07T14:08:40;4.30;99.90
8332;DHT22;4203;48.144;14.118;2022-12-07T14:11:09;4.30;99.90
8332;DHT22;4203;48.144;14.118;2022-12-07T14:13:50;4.30;99.90
8332;DHT22;4203;48.144;14.118;2022-12-07T14:16:24;4.20;99.90
8332;DHT22;4203;48.144;14.118;2022-12-07T14:18:53;4.20;99.90
8332;DHT22;4203;48.144;14.118;2022-12-07T14:21:22;4.20;99.90
8332;DHT22;4203;48.144;14.118;2022-12-07T14:24:12;4.20;99.90
8332;DHT22;4203;48.144;14.118;2022-12-07T14:26:42;4.10;99.90
8332;DHT22;4203;48.144;14.118;2022-12-07T14:29:22;4.00;99.90
8332;DHT22;4203;48.144;14.118;2022-12-07T14:31:50;3.80;99.90
8332;DHT22;4203;48.144;14.118;2022-12-07T14:34:19;3.70;99.90
8332;DHT22;4203;48.144;14.118;2022-12-07T14:36:46;3.60;99.90
8332;DHT22;4203;48.144;14.118;2022-12-07T14:39:14;3.50;99.90
8332;DHT22;4203;48.144;14.118;2022-12-07T14:41:41;3.40;99.90
8332;DHT22;4203;48.144;14.118;2022-12-07T14:44:20;3.40;99.90
8332;DHT22;4203;48.144;14.118;2022-12-07T14:46:48;3.40;99.90
8332;DHT22;4203;48.144;14.118;2022-12-07T14:49:15;3.40;99.90
8332;DHT22;4203;48.144;14.118;2022-12-07T14:51:44;3.30;99.90
8332;DHT22;4203;48.144;14.118;2022-12-07T14:54:15;3.30;99.90
8332;DHT22;4203;48.144;14.118;2022-12-07T14:56:44;3.20;99.90
8332;DHT22;4203;48.144;14.118;2022-12-07T14:59:11;3.10;99.90
8332;DHT22;4203;48.144;14.118;2022-12-07T15:01:40;3.10;99.90
8332;DHT22;4203;48.144;14.118;2022-12-07T15:04:07;3.00;99.90
8332;DHT22;4203;48.144;14.118;2022-12-07T15:06:35;2.80;99.90
8332;DHT22;4203;48.144;14.118;2022-12-07T15:09:03;2.70;99.90
8332;DHT22;4203;48.144;14.118;2022-12-07T15:11:30;2.70;99.90
8332;DHT22;4203;48.144;14.118;2022-12-07T15:13:57;2.70;99.90
8332;DHT22;4203;48.144;14.118;2022-12-07T15:16:41;2.70;99.90
8332;DHT22;4203;48.144;14.118;2022-12-07T15:19:12;2.50;99.90
8332;DHT22;4203;48.144;14.118;2022-12-07T15:21:40;2.40;99.90
8332;DHT22;4203;48.144;14.118;2022-12-07T15:24:09;2.40;99.90
8332;DHT22;4203;48.144;14.118;2022-12-07T15:26:36;2.30;99.90
8332;DHT22;4203;48.144;14.118;2022-12-07T15:29:05;2.20;99.90
8332;DHT22;4203;48.144;14.118;2022-12-07T15:31:33;2.10;99.90
8332;DHT22;4203;48.144;14.118;2022-12-07T15:34:02;2.00;99.90
8332;DHT22;4203;48.144;14.118;2022-12-07T15:36:32;1.90;99.90
8332;DHT22;4203;48.144;14.118;2022-12-07T15:39:00;1.90;99.90
8332;DHT22;4203;48.144;14.118;2022-12-07T15:41:27;1.80;99.90
8332;DHT22;4203;48.144;14.118;2022-12-07T15:43:55;1.80;99.90
8332;DHT22;4203;48.144;14.118;2022-12-07T15:46:40;1.80;99.90
8332;DHT22;4203;48.144;14.118;2022-12-07T15:49:12;1.70;99.90
8332;DHT22;4203;48.144;14.118;2022-12-07T15:51:40;1.70;99.90
8332;DHT22;4203;48.144;14.118;2022-12-07T15:54:08;1.60;99.90
8332;DHT22;4203;48.144;14.118;2022-12-07T15:56:38;1.50;99.90
8332;DHT22;4203;48.144;14.118;2022-12-07T15:59:05;1.30;99.90
8332;DHT22;4203;48.144;14.118;2022-12-07T16:01:33;1.20;99.90
8332;DHT22;4203;48.144;14.118;2022-12-07T16:04:00;1.10;99.90
8332;DHT22;4203;48.144;14.118;2022-12-07T16:06:29;1.00;99.90
8332;DHT22;4203;48.144;14.118;2022-12-07T16:08:56;1.00;99.90
8332;DHT22;4203;48.144;14.118;2022-12-07T16:11:23;1.10;99.90
8332;DHT22;4203;48.144;14.118;2022-12-07T16:13:50;1.30;99.90
8332;DHT22;4203;48.144;14.118;2022-12-07T16:16:19;1.30;99.90
8332;DHT22;4203;48.144;14.118;2022-12-07T16:18:47;1.40;99.90
8332;DHT22;4203;48.144;14.118;2022-12-07T16:21:16;1.50;99.90
8332;DHT22;4203;48.144;14.118;2022-12-07T16:23:46;1.60;99.90
8332;DHT22;4203;48.144;14.118;2022-12-07T16:26:15;1.60;99.90
8332;DHT22;4203;48.144;14.118;2022-12-07T16:28:43;1.60;99.90
8332;DHT22;4203;48.144;14.118;2022-12-07T16:31:12;1.70;99.90
8332;DHT22;4203;48.144;14.118;2022-12-07T16:33:40;1.70;99.90
8332;DHT22;4203;48.144;14.118;2022-12-07T16:36:09;1.80;99.90
8332;DHT22;4203;48.144;14.118;2022-12-07T16:38:37;1.80;99.90
8332;DHT22;4203;48.144;14.118;2022-12-07T16:41:06;1.80;99.90
8332;DHT22;4203;48.144;14.118;2022-12-07T16:43:34;1.80;99.90
8332;DHT22;4203;48.144;14.118;2022-12-07T16:46:03;1.70;99.90
8332;DHT22;4203;48.144;14.118;2022-12-07T16:48:30;1.80;99.90
8332;DHT22;4203;48.144;14.118;2022-12-07T16:50:58;1.80;99.90
8332;DHT22;4203;48.144;14.118;2022-12-07T16:53:29;1.60;99.90
8332;DHT22;4203;48.144;14.118;2022-12-07T16:55:56;1.50;99.90